sensor_id;sensor_type;location;lat;lon;timestamp;pressure;altitude;pressure_sealevel;temperature;humidity
65760;BME280;52496;51.082;5.066;2023-03-18T00:00:48;100691.06;;;12.10;100.00
65760;BME280;52496;51.082;5.066;2023-03-18T00:03:18;100699.75;;;12.12;100.00
65760;BME280;52496;51.082;5.066;2023-03-18T00:05:49;100706.56;;;12.14;100.00
65760;BME280;52496;51.082;5.066;2023-03-18T00:08:20;100713.38;;;12.17;100.00
65760;BME280;52496;51.082;5.066;2023-03-18T00:10:50;100719.38;;;12.19;100.00
65760;BME280;52496;51.082;5.066;2023-03-18T00:13:21;100719.19;;;12.21;100.00
65760;BME280;52496;51.082;5.066;2023-03-18T00:15:52;100721.00;;;12.20;100.00
65760;BME280;52496;51.082;5.066;2023-03-18T00:18:23;100722.03;;;12.19;100.00
65760;BME280;52496;51.082;5.066;2023-03-18T00:20:54;100722.84;;;12.13;100.00
65760;BME280;52496;51.082;5.066;2023-03-18T00:23:24;100719.72;;;12.09;100.00
65760;BME280;52496;51.082;5.066;2023-03-18T00:25:56;100717.00;;;12.03;100.00
65760;BME280;52496;51.082;5.066;2023-03-18T00:28:29;100720.47;;;11.97;100.00
65760;BME280;52496;51.082;5.066;2023-03-18T00:31:06;100727.63;;;11.89;100.00
65760;BME280;52496;51.082;5.066;2023-03-18T00:33:39;100725.69;;;11.83;100.00
65760;BME280;52496;51.082;5.066;2023-03-18T00:36:11;100715.75;;;11.77;100.00
65760;BME280;52496;51.082;5.066;2023-03-18T00:38:46;100709.16;;;11.73;100.00
65760;BME280;52496;51.082;5.066;2023-03-18T00:41:20;100698.19;;;11.68;100.00
65760;BME280;52496;51.082;5.066;2023-03-18T00:43:51;100691.56;;;11.64;100.00
65760;BME280;52496;51.082;5.066;2023-03-18T00:46:30;100698.97;;;11.62;100.00
65760;BME280;52496;51.082;5.066;2023-03-18T00:49:03;100703.06;;;11.58;100.00
65760;BME280;52496;51.082;5.066;2023-03-18T00:51:36;100703.44;;;11.55;100.00
65760;BME280;52496;51.082;5.066;2023-03-18T00:54:08;100700.94;;;11.53;100.00
65760;BME280;52496;51.082;5.066;2023-03-18T00:56:39;100693.50;;;11.48;100.00
65760;BME280;52496;51.082;5.066;2023-03-18T00:59:11;100691.00;;;11.47;100.00
65760;BME280;52496;51.082;5.066;2023-03-18T01:01:42;100688.53;;;11.45;100.00
65760;BME280;52496;51.082;5.066;2023-03-18T01:04:13;100683.59;;;11.42;100.00
65760;BME280;52496;51.082;5.066;2023-03-18T01:06:44;100681.94;;;11.41;100.00
65760;BME280;52496;51.082;5.066;2023-03-18T01:09:14;100685.63;;;11.40;100.00
65760;BME280;52496;51.082;5.066;2023-03-18T01:11:45;100686.00;;;11.37;100.00
65760;BME280;52496;51.082;5.066;2023-03-18T01:14:16;100683.72;;;11.34;100.00
65760;BME280;52496;51.082;5.066;2023-03-18T01:16:47;100690.28;;;11.32;100.00
65760;BME280;52496;51.082;5.066;2023-03-18T01:19:18;100693.34;;;11.29;100.00
65760;BME280;52496;51.082;5.066;2023-03-18T01:21:49;100710.63;;;11.26;100.00
65760;BME280;52496;51.082;5.066;2023-03-18T01:24:19;100706.66;;;11.22;100.00
65760;BME280;52496;51.082;5.066;2023-03-18T01:26:51;100710.75;;;11.18;100.00
65760;BME280;52496;51.082;5.066;2023-03-18T01:29:22;100713.81;;;11.15;100.00
65760;BME280;52496;51.082;5.066;2023-03-18T01:31:54;100729.88;;;11.15;100.00
65760;BME280;52496;51.082;5.066;2023-03-18T01:34:25;100728.22;;;11.14;100.00
65760;BME280;52496;51.082;5.066;2023-03-18T01:36:55;100733.59;;;11.14;100.00
65760;BME280;52496;51.082;5.066;2023-03-18T01:39:27;100727.38;;;11.13;100.00
65760;BME280;52496;51.082;5.066;2023-03-18T01:41:57;100737.09;;;11.14;100.00
65760;BME280;52496;51.082;5.066;2023-03-18T01:44:28;100735.22;;;11.15;100.00
65760;BME280;52496;51.082;5.066;2023-03-18T01:47:00;100733.59;;;11.14;100.00
65760;BME280;52496;51.082;5.066;2023-03-18T01:49:38;100725.72;;;11.12;100.00
65760;BME280;52496;51.082;5.066;2023-03-18T01:52:15;100726.56;;;11.13;100.00
65760;BME280;52496;51.082;5.066;2023-03-18T01:55:02;100728.56;;;11.11;100.00
65760;BME280;52496;51.082;5.066;2023-03-18T01:57:34;100721.41;;;11.11;100.00
65760;BME280;52496;51.082;5.066;2023-03-18T02:00:05;100726.94;;;11.10;100.00
65760;BME280;52496;51.082;5.066;2023-03-18T02:02:40;100724.47;;;11.08;100.00
65760;BME280;52496;51.082;5.066;2023-03-18T02:05:16;100723.00;;;11.06;100.00
65760;BME280;52496;51.082;5.066;2023-03-18T02:07:46;100732.00;;;11.05;100.00
65760;BME280;52496;51.082;5.066;2023-03-18T02:10:24;100729.53;;;11.03;100.00
65760;BME280;52496;51.082;5.066;2023-03-18T02:12:58;100727.69;;;11.03;100.00
65760;BME280;52496;51.082;5.066;2023-03-18T02:15:30;100731.19;;;11.04;100.00
65760;BME280;52496;51.082;5.066;2023-03-18T02:18:07;100725.00;;;11.03;100.00
65760;BME280;52496;51.082;5.066;2023-03-18T02:20:54;100730.38;;;11.03;100.00
65760;BME280;52496;51.082;5.066;2023-03-18T02:26:36;100733.03;;;11.03;100.00
65760;BME280;52496;51.082;5.066;2023-03-18T02:29:10;100734.91;;;11.03;100.00
65760;BME280;52496;51.082;5.066;2023-03-18T02:31:43;100724.38;;;11.01;100.00
65760;BME280;52496;51.082;5.066;2023-03-18T02:34:15;100724.19;;;11.03;100.00
65760;BME280;52496;51.082;5.066;2023-03-18T02:36:47;100732.00;;;11.05;100.00
65760;BME280;52496;51.082;5.066;2023-03-18T02:39:17;100736.38;;;11.06;100.00
65760;BME280;52496;51.082;5.066;2023-03-18T02:41:49;100728.50;;;11.04;100.00
65760;BME280;52496;51.082;5.066;2023-03-18T02:44:20;100728.34;;;11.06;100.00
65760;BME280;52496;51.082;5.066;2023-03-18T02:47:11;100732.88;;;11.05;100.00
65760;BME280;52496;51.082;5.066;2023-03-18T02:49:43;100733.88;;;11.04;100.00
65760;BME280;52496;51.082;5.066;2023-03-18T02:52:14;100729.34;;;11.05;100.00
65760;BME280;52496;51.082;5.066;2023-03-18T02:54:44;100735.72;;;11.03;100.00
65760;BME280;52496;51.082;5.066;2023-03-18T02:57:15;100730.38;;;11.03;100.00
65760;BME280;52496;51.082;5.066;2023-03-18T02:59:46;100740.03;;;11.05;100.00
65760;BME280;52496;51.082;5.066;2023-03-18T03:02:16;100742.91;;;11.03;100.00
65760;BME280;52496;51.082;5.066;2023-03-18T03:04:47;100746.41;;;11.03;100.00
65760;BME280;52496;51.082;5.066;2023-03-18T03:07:18;100752.81;;;11.02;100.00
65760;BME280;52496;51.082;5.066;2023-03-18T03:09:49;100750.13;;;11.02;100.00
65760;BME280;52496;51.082;5.066;2023-03-18T03:12:19;100743.09;;;11.01;100.00
65760;BME280;52496;51.082;5.066;2023-03-18T03:14:50;100742.47;;;10.99;100.00
65760;BME280;52496;51.082;5.066;2023-03-18T03:17:21;100744.13;;;11.00;100.00
65760;BME280;52496;51.082;5.066;2023-03-18T03:19:51;100753.19;;;10.99;100.00
65760;BME280;52496;51.082;5.066;2023-03-18T03:22:22;100752.34;;;10.99;100.00
65760;BME280;52496;51.082;5.066;2023-03-18T03:24:53;100749.47;;;11.00;100.00
65760;BME280;52496;51.082;5.066;2023-03-18T03:27:23;100756.84;;;10.98;100.00
65760;BME280;52496;51.082;5.066;2023-03-18T03:29:54;100753.19;;;10.99;100.00
65760;BME280;52496;51.082;5.066;2023-03-18T03:32:25;100755.84;;;10.99;100.00
65760;BME280;52496;51.082;5.066;2023-03-18T03:34:55;100763.88;;;10.99;100.00
65760;BME280;52496;51.082;5.066;2023-03-18T03:37:26;100763.88;;;10.99;100.00
65760;BME280;52496;51.082;5.066;2023-03-18T03:39:57;100765.91;;;10.97;100.00
65760;BME280;52496;51.082;5.066;2023-03-18T03:42:29;100769.63;;;10.96;100.00
65760;BME280;52496;51.082;5.066;2023-03-18T03:44:59;100774.16;;;10.96;100.00
65760;BME280;52496;51.082;5.066;2023-03-18T03:47:30;100777.00;;;10.94;100.00
65760;BME280;52496;51.082;5.066;2023-03-18T03:50:02;100781.69;;;10.92;100.00
65760;BME280;52496;51.082;5.066;2023-03-18T03:52:33;100786.41;;;10.90;100.00
65760;BME280;52496;51.082;5.066;2023-03-18T03:55:05;100774.03;;;10.89;100.00
65760;BME280;52496;51.082;5.066;2023-03-18T03:57:37;100782.44;;;10.86;100.00
65760;BME280;52496;51.082;5.066;2023-03-18T04:00:11;100780.63;;;10.87;100.00
65760;BME280;52496;51.082;5.066;2023-03-18T04:02:47;100777.28;;;10.85;100.00
65760;BME280;52496;51.082;5.066;2023-03-18T04:05:20;100774.78;;;10.83;100.00
65760;BME280;52496;51.082;5.066;2023-03-18T04:07:53;100781.00;;;10.84;100.00
65760;BME280;52496;51.082;5.066;2023-03-18T04:10:25;100775.81;;;10.82;100.00
65760;BME280;52496;51.082;5.066;2023-03-18T04:12:56;100794.53;;;10.82;100.00
65760;BME280;52496;51.082;5.066;2023-03-18T04:15:28;100795.56;;;10.81;100.00
65760;BME280;52496;51.082;5.066;2023-03-18T04:17:58;100792.06;;;10.81;100.00
65760;BME280;52496;51.082;5.066;2023-03-18T04:20:37;100796.56;;;10.80;100.00
65760;BME280;52496;51.082;5.066;2023-03-18T04:23:08;100795.13;;;10.77;100.00
65760;BME280;52496;51.082;5.066;2023-03-18T04:25:39;100792.44;;;10.77;100.00
65760;BME280;52496;51.082;5.066;2023-03-18T04:28:09;100800.63;;;10.76;100.00
65760;BME280;52496;51.082;5.066;2023-03-18T04:30:40;100802.66;;;10.74;100.00
65760;BME280;52496;51.082;5.066;2023-03-18T04:33:12;100796.50;;;10.73;100.00
65760;BME280;52496;51.082;5.066;2023-03-18T04:35:43;100799.75;;;10.69;100.00
65760;BME280;52496;51.082;5.066;2023-03-18T04:38:14;100814.09;;;10.68;100.00
65760;BME280;52496;51.082;5.066;2023-03-18T04:40:45;100808.13;;;10.66;100.00
65760;BME280;52496;51.082;5.066;2023-03-18T04:43:15;100807.47;;;10.64;100.00
65760;BME280;52496;51.082;5.066;2023-03-18T04:45:46;100806.19;;;10.60;100.00
65760;BME280;52496;51.082;5.066;2023-03-18T04:48:16;100800.56;;;10.54;100.00
65760;BME280;52496;51.082;5.066;2023-03-18T04:50:47;100800.28;;;10.49;100.00
65760;BME280;52496;51.082;5.066;2023-03-18T04:53:18;100802.22;;;10.41;100.00
65760;BME280;52496;51.082;5.066;2023-03-18T04:55:49;100807.66;;;10.32;100.00
65760;BME280;52496;51.082;5.066;2023-03-18T04:58:21;100815.94;;;10.23;100.00
65760;BME280;52496;51.082;5.066;2023-03-18T05:00:52;100822.75;;;10.10;100.00
65760;BME280;52496;51.082;5.066;2023-03-18T05:03:23;100822.16;;;10.00;100.00
65760;BME280;52496;51.082;5.066;2023-03-18T05:05:53;100822.03;;;9.94;100.00
65760;BME280;52496;51.082;5.066;2023-03-18T05:08:24;100821.94;;;9.87;100.00
65760;BME280;52496;51.082;5.066;2023-03-18T05:10:55;100815.00;;;9.78;100.00
65760;BME280;52496;51.082;5.066;2023-03-18T05:13:26;100820.41;;;9.70;100.00
65760;BME280;52496;51.082;5.066;2023-03-18T05:15:56;100819.13;;;9.65;100.00
65760;BME280;52496;51.082;5.066;2023-03-18T05:18:27;100817.78;;;9.61;100.00
65760;BME280;52496;51.082;5.066;2023-03-18T05:20:57;100820.19;;;9.56;100.00
65760;BME280;52496;51.082;5.066;2023-03-18T05:23:28;100814.72;;;9.50;100.00
65760;BME280;52496;51.082;5.066;2023-03-18T05:25:59;100810.94;;;9.44;100.00
65760;BME280;52496;51.082;5.066;2023-03-18T05:28:30;100817.97;;;9.37;100.00
65760;BME280;52496;51.082;5.066;2023-03-18T05:31:01;100810.84;;;9.29;100.00
65760;BME280;52496;51.082;5.066;2023-03-18T05:33:32;100816.22;;;9.21;100.00
65760;BME280;52496;51.082;5.066;2023-03-18T05:36:03;100809.94;;;9.14;100.00
65760;BME280;52496;51.082;5.066;2023-03-18T05:38:34;100817.84;;;9.07;100.00
65760;BME280;52496;51.082;5.066;2023-03-18T05:41:04;100808.84;;;9.00;100.00
65760;BME280;52496;51.082;5.066;2023-03-18T05:43:35;100813.03;;;8.94;100.00
65760;BME280;52496;51.082;5.066;2023-03-18T05:46:06;100820.56;;;8.91;100.00
65760;BME280;52496;51.082;5.066;2023-03-18T05:48:36;100825.25;;;8.89;100.00
65760;BME280;52496;51.082;5.066;2023-03-18T05:51:07;100835.25;;;8.87;100.00
65760;BME280;52496;51.082;5.066;2023-03-18T05:53:38;100846.09;;;8.85;100.00
65760;BME280;52496;51.082;5.066;2023-03-18T05:56:08;100836.63;;;8.83;100.00
65760;BME280;52496;51.082;5.066;2023-03-18T05:58:41;100839.28;;;8.83;100.00
65760;BME280;52496;51.082;5.066;2023-03-18T06:01:11;100839.91;;;8.85;100.00
65760;BME280;52496;51.082;5.066;2023-03-18T06:03:43;100840.59;;;8.87;100.00
65760;BME280;52496;51.082;5.066;2023-03-18T06:06:14;100836.91;;;8.88;100.00
65760;BME280;52496;51.082;5.066;2023-03-18T06:08:45;100839.41;;;8.89;100.00
65760;BME280;52496;51.082;5.066;2023-03-18T06:11:15;100852.22;;;8.94;100.00
65760;BME280;52496;51.082;5.066;2023-03-18T06:13:46;100848.56;;;8.95;100.00
65760;BME280;52496;51.082;5.066;2023-03-18T06:16:17;100851.88;;;8.97;100.00
65760;BME280;52496;51.082;5.066;2023-03-18T06:18:47;100854.38;;;8.99;100.00
65760;BME280;52496;51.082;5.066;2023-03-18T06:21:19;100859.72;;;8.99;100.00
65760;BME280;52496;51.082;5.066;2023-03-18T06:23:50;100848.03;;;9.00;100.00
65760;BME280;52496;51.082;5.066;2023-03-18T06:26:22;100852.34;;;9.01;100.00
65760;BME280;52496;51.082;5.066;2023-03-18T06:28:52;100861.84;;;9.03;100.00
65760;BME280;52496;51.082;5.066;2023-03-18T06:31:24;100869.69;;;9.05;100.00
65760;BME280;52496;51.082;5.066;2023-03-18T06:33:55;100864.84;;;9.08;100.00
65760;BME280;52496;51.082;5.066;2023-03-18T06:36:25;100868.81;;;9.12;100.00
65760;BME280;52496;51.082;5.066;2023-03-18T06:38:56;100865.63;;;9.17;100.00
65760;BME280;52496;51.082;5.066;2023-03-18T06:41:28;100875.13;;;9.19;100.00
65760;BME280;52496;51.082;5.066;2023-03-18T06:43:59;100868.44;;;9.24;100.00
65760;BME280;52496;51.082;5.066;2023-03-18T06:46:30;100873.25;;;9.28;100.00
65760;BME280;52496;51.082;5.066;2023-03-18T06:49:01;100868.56;;;9.30;100.00
65760;BME280;52496;51.082;5.066;2023-03-18T06:51:32;100865.38;;;9.35;100.00
65760;BME280;52496;51.082;5.066;2023-03-18T06:54:07;100859.34;;;9.41;100.00
65760;BME280;52496;51.082;5.066;2023-03-18T06:56:39;100866.31;;;9.42;100.00
65760;BME280;52496;51.082;5.066;2023-03-18T06:59:10;100878.28;;;9.46;100.00
65760;BME280;52496;51.082;5.066;2023-03-18T07:01:48;100877.94;;;9.49;100.00
65760;BME280;52496;51.082;5.066;2023-03-18T07:04:19;100883.78;;;9.53;100.00
65760;BME280;52496;51.082;5.066;2023-03-18T07:06:50;100887.56;;;9.58;100.00
65760;BME280;52496;51.082;5.066;2023-03-18T07:09:22;100887.72;;;9.65;100.00
65760;BME280;52496;51.082;5.066;2023-03-18T07:11:53;100887.00;;;9.71;100.00
65760;BME280;52496;51.082;5.066;2023-03-18T07:14:24;100887.94;;;9.78;100.00
65760;BME280;52496;51.082;5.066;2023-03-18T07:16:54;100893.41;;;9.85;100.00
65760;BME280;52496;51.082;5.066;2023-03-18T07:19:25;100887.34;;;9.91;100.00
65760;BME280;52496;51.082;5.066;2023-03-18T07:21:56;100886.97;;;9.94;100.00
65760;BME280;52496;51.082;5.066;2023-03-18T07:24:27;100882.28;;;9.96;100.00
65760;BME280;52496;51.082;5.066;2023-03-18T07:26:57;100888.31;;;9.98;100.00
65760;BME280;52496;51.082;5.066;2023-03-18T07:29:29;100890.78;;;10.00;100.00
65760;BME280;52496;51.082;5.066;2023-03-18T07:31:59;100889.59;;;10.02;100.00
65760;BME280;52496;51.082;5.066;2023-03-18T07:34:31;100893.75;;;10.05;100.00
65760;BME280;52496;51.082;5.066;2023-03-18T07:37:01;100893.50;;;10.15;100.00
65760;BME280;52496;51.082;5.066;2023-03-18T07:39:33;100895.09;;;10.24;100.00
65760;BME280;52496;51.082;5.066;2023-03-18T07:42:03;100901.69;;;10.36;100.00
65760;BME280;52496;51.082;5.066;2023-03-18T07:44:34;100898.59;;;10.47;100.00
65760;BME280;52496;51.082;5.066;2023-03-18T07:47:06;100897.13;;;10.60;100.00
65760;BME280;52496;51.082;5.066;2023-03-18T07:49:37;100895.47;;;10.73;100.00
65760;BME280;52496;51.082;5.066;2023-03-18T07:52:07;100898.13;;;10.88;100.00
65760;BME280;52496;51.082;5.066;2023-03-18T07:54:38;100902.00;;;11.00;100.00
65760;BME280;52496;51.082;5.066;2023-03-18T07:57:09;100905.88;;;11.13;100.00
65760;BME280;52496;51.082;5.066;2023-03-18T07:59:40;100910.75;;;11.24;100.00
65760;BME280;52496;51.082;5.066;2023-03-18T08:02:12;100911.66;;;11.31;100.00
65760;BME280;52496;51.082;5.066;2023-03-18T08:04:43;100903.16;;;11.42;100.00
65760;BME280;52496;51.082;5.066;2023-03-18T08:07:15;100905.97;;;11.56;100.00
65760;BME280;52496;51.082;5.066;2023-03-18T08:09:47;100905.47;;;11.67;100.00
65760;BME280;52496;51.082;5.066;2023-03-18T08:12:19;100909.88;;;11.75;100.00
65760;BME280;52496;51.082;5.066;2023-03-18T08:14:50;100911.81;;;11.81;100.00
65760;BME280;52496;51.082;5.066;2023-03-18T08:17:21;100908.19;;;11.88;100.00
65760;BME280;52496;51.082;5.066;2023-03-18T08:19:52;100907.94;;;12.05;100.00
65760;BME280;52496;51.082;5.066;2023-03-18T08:22:23;100912.66;;;12.24;100.00
65760;BME280;52496;51.082;5.066;2023-03-18T08:24:54;100906.59;;;12.44;100.00
65760;BME280;52496;51.082;5.066;2023-03-18T08:27:27;100911.31;;;12.63;100.00
65760;BME280;52496;51.082;5.066;2023-03-18T08:29:58;100918.81;;;12.81;100.00
65760;BME280;52496;51.082;5.066;2023-03-18T08:32:29;100910.69;;;13.02;100.00
65760;BME280;52496;51.082;5.066;2023-03-18T08:34:59;100908.75;;;13.24;100.00
65760;BME280;52496;51.082;5.066;2023-03-18T08:37:31;100908.66;;;13.46;100.00
65760;BME280;52496;51.082;5.066;2023-03-18T08:40:03;100902.31;;;13.73;100.00
65760;BME280;52496;51.082;5.066;2023-03-18T08:42:34;100912.47;;;13.91;100.00
65760;BME280;52496;51.082;5.066;2023-03-18T08:45:05;100913.94;;;14.14;100.00
65760;BME280;52496;51.082;5.066;2023-03-18T08:47:36;100921.56;;;14.30;100.00
65760;BME280;52496;51.082;5.066;2023-03-18T08:50:07;100922.84;;;14.41;100.00
65760;BME280;52496;51.082;5.066;2023-03-18T08:52:38;100935.88;;;14.57;100.00
65760;BME280;52496;51.082;5.066;2023-03-18T08:55:10;100934.22;;;14.69;100.00
65760;BME280;52496;51.082;5.066;2023-03-18T08:57:42;100944.56;;;14.73;100.00
65760;BME280;52496;51.082;5.066;2023-03-18T09:00:13;100933.38;;;14.76;100.00
65760;BME280;52496;51.082;5.066;2023-03-18T09:02:51;100936.69;;;14.78;100.00
65760;BME280;52496;51.082;5.066;2023-03-18T09:05:24;100942.72;;;14.80;100.00
65760;BME280;52496;51.082;5.066;2023-03-18T09:08:01;100930.69;;;14.89;100.00
65760;BME280;52496;51.082;5.066;2023-03-18T09:10:34;100936.66;;;15.04;100.00
65760;BME280;52496;51.082;5.066;2023-03-18T09:13:06;100929.13;;;15.20;100.00
65760;BME280;52496;51.082;5.066;2023-03-18T09:15:37;100931.59;;;15.28;100.00
65760;BME280;52496;51.082;5.066;2023-03-18T09:18:09;100918.69;;;15.36;100.00
65760;BME280;52496;51.082;5.066;2023-03-18T09:20:40;100923.22;;;15.49;100.00
65760;BME280;52496;51.082;5.066;2023-03-18T09:23:12;100932.09;;;15.56;100.00
65760;BME280;52496;51.082;5.066;2023-03-18T09:25:44;100933.09;;;15.62;100.00
65760;BME280;52496;51.082;5.066;2023-03-18T09:28:17;100919.81;;;15.67;100.00
65760;BME280;52496;51.082;5.066;2023-03-18T09:30:49;100927.44;;;15.77;100.00
65760;BME280;52496;51.082;5.066;2023-03-18T09:33:20;100921.78;;;15.85;100.00
65760;BME280;52496;51.082;5.066;2023-03-18T09:35:51;100917.09;;;16.05;100.00
65760;BME280;52496;51.082;5.066;2023-03-18T09:38:22;100916.50;;;16.28;100.00
65760;BME280;52496;51.082;5.066;2023-03-18T09:49:23;100892.28;;;17.39;90.01
65760;BME280;52496;51.082;5.066;2023-03-18T09:52:20;100895.47;;;17.66;95.66
65760;BME280;52496;51.082;5.066;2023-03-18T09:55:02;100903.31;;;17.98;94.48
65760;BME280;52496;51.082;5.066;2023-03-18T09:57:38;100905.25;;;18.09;92.82
65760;BME280;52496;51.082;5.066;2023-03-18T10:00:19;100915.13;;;18.15;90.21
65760;BME280;52496;51.082;5.066;2023-03-18T10:02:58;100913.50;;;18.14;93.48
65760;BME280;52496;51.082;5.066;2023-03-18T10:05:39;100914.53;;;18.13;90.68
65760;BME280;52496;51.082;5.066;2023-03-18T10:08:23;100924.03;;;18.04;94.07
65760;BME280;52496;51.082;5.066;2023-03-18T10:11:01;100926.72;;;17.92;92.97
65760;BME280;52496;51.082;5.066;2023-03-18T10:13:41;100934.84;;;17.74;93.98
65760;BME280;52496;51.082;5.066;2023-03-18T10:16:20;100946.69;;;17.61;93.78
65760;BME280;52496;51.082;5.066;2023-03-18T10:18:52;100941.00;;;17.51;92.81
65760;BME280;52496;51.082;5.066;2023-03-18T10:21:49;100950.78;;;17.33;94.32
65760;BME280;52496;51.082;5.066;2023-03-18T10:29:46;100937.28;;;16.96;98.43
65760;BME280;52496;51.082;5.066;2023-03-18T10:32:30;100937.19;;;16.85;93.82
65760;BME280;52496;51.082;5.066;2023-03-18T10:38:29;100937.91;;;16.48;96.18
65760;BME280;52496;51.082;5.066;2023-03-18T10:41:21;100941.75;;;16.34;99.35
65760;BME280;52496;51.082;5.066;2023-03-18T10:43:53;100948.72;;;16.23;96.47
65760;BME280;52496;51.082;5.066;2023-03-18T10:46:24;100952.50;;;16.16;99.01
65760;BME280;52496;51.082;5.066;2023-03-18T10:49:10;100960.25;;;16.05;97.12
65760;BME280;52496;51.082;5.066;2023-03-18T10:51:42;100959.03;;;16.01;98.11
65760;BME280;52496;51.082;5.066;2023-03-18T10:54:32;100957.03;;;15.90;96.68
65760;BME280;52496;51.082;5.066;2023-03-18T10:57:11;100960.81;;;15.76;97.85
65760;BME280;52496;51.082;5.066;2023-03-18T10:59:43;100966.25;;;15.69;97.87
65760;BME280;52496;51.082;5.066;2023-03-18T11:02:21;100953.84;;;15.62;100.00
65760;BME280;52496;51.082;5.066;2023-03-18T11:04:58;100962.16;;;15.53;99.40
65760;BME280;52496;51.082;5.066;2023-03-18T11:07:31;100967.97;;;15.50;100.00
65760;BME280;52496;51.082;5.066;2023-03-18T11:10:12;100973.81;;;15.47;100.00
65760;BME280;52496;51.082;5.066;2023-03-18T11:12:43;100973.81;;;15.47;100.00
65760;BME280;52496;51.082;5.066;2023-03-18T11:15:18;100978.56;;;15.45;100.00
65760;BME280;52496;51.082;5.066;2023-03-18T11:17:50;100971.34;;;15.39;100.00
65760;BME280;52496;51.082;5.066;2023-03-18T11:20:30;100974.69;;;15.34;100.00
65760;BME280;52496;51.082;5.066;2023-03-18T11:23:14;100975.13;;;15.25;100.00
65760;BME280;52496;51.082;5.066;2023-03-18T11:25:47;100969.53;;;15.20;100.00
65760;BME280;52496;51.082;5.066;2023-03-18T11:28:22;100969.75;;;15.11;100.00
65760;BME280;52496;51.082;5.066;2023-03-18T11:30:56;100966.47;;;15.09;100.00
65760;BME280;52496;51.082;5.066;2023-03-18T11:33:31;100972.28;;;15.06;100.00
65760;BME280;52496;51.082;5.066;2023-03-18T11:36:08;100970.59;;;15.05;100.00
65760;BME280;52496;51.082;5.066;2023-03-18T11:38:42;100969.97;;;15.03;100.00
65760;BME280;52496;51.082;5.066;2023-03-18T11:41:15;100966.91;;;15.06;100.00
65760;BME280;52496;51.082;5.066;2023-03-18T11:44:01;100966.47;;;15.09;100.00
65760;BME280;52496;51.082;5.066;2023-03-18T11:46:42;100972.69;;;15.10;100.00
65760;BME280;52496;51.082;5.066;2023-03-18T11:49:18;100971.88;;;15.09;100.00
65760;BME280;52496;51.082;5.066;2023-03-18T11:51:57;100976.63;;;15.07;100.00
65760;BME280;52496;51.082;5.066;2023-03-18T12:00:15;100967.72;;;14.94;100.00
65760;BME280;52496;51.082;5.066;2023-03-18T12:08:46;100969.78;;;15.05;100.00
65760;BME280;52496;51.082;5.066;2023-03-18T12:14:11;100968.97;;;15.04;100.00
65760;BME280;52496;51.082;5.066;2023-03-18T12:28:41;100954.50;;;14.72;100.00
65760;BME280;52496;51.082;5.066;2023-03-18T12:33:56;100958.69;;;14.61;100.00
65760;BME280;52496;51.082;5.066;2023-03-18T12:36:49;100953.28;;;14.61;100.00
65760;BME280;52496;51.082;5.066;2023-03-18T12:39:53;100960.31;;;14.62;100.00
65760;BME280;52496;51.082;5.066;2023-03-18T12:45:19;100956.97;;;14.87;100.00
65760;BME280;52496;51.082;5.066;2023-03-18T12:47:55;100951.94;;;15.17;100.00
65760;BME280;52496;51.082;5.066;2023-03-18T12:50:38;100951.19;;;15.48;100.00
65760;BME280;52496;51.082;5.066;2023-03-18T12:53:24;100945.09;;;15.73;100.00
65760;BME280;52496;51.082;5.066;2023-03-18T12:56:09;100945.81;;;15.93;100.00
65760;BME280;52496;51.082;5.066;2023-03-18T12:58:46;100941.97;;;16.08;99.10
65760;BME280;52496;51.082;5.066;2023-03-18T13:01:32;100936.13;;;16.61;100.00
65760;BME280;52496;51.082;5.066;2023-03-18T13:04:11;100932.47;;;17.35;100.00
65760;BME280;52496;51.082;5.066;2023-03-18T13:07:04;100935.84;;;17.79;92.84
65760;BME280;52496;51.082;5.066;2023-03-18T13:09:59;100931.72;;;18.19;91.17
65760;BME280;52496;51.082;5.066;2023-03-18T13:12:37;100936.78;;;18.15;87.42
65760;BME280;52496;51.082;5.066;2023-03-18T13:15:22;100928.06;;;18.13;86.89
65760;BME280;52496;51.082;5.066;2023-03-18T13:17:59;100930.66;;;18.08;86.48
65760;BME280;52496;51.082;5.066;2023-03-18T13:20:35;100931.13;;;18.05;87.91
65760;BME280;52496;51.082;5.066;2023-03-18T13:26:15;100932.41;;;18.02;83.41
65760;BME280;52496;51.082;5.066;2023-03-18T13:29:02;100921.28;;;18.46;81.37
65760;BME280;52496;51.082;5.066;2023-03-18T13:31:42;100920.81;;;18.96;81.55
65760;BME280;52496;51.082;5.066;2023-03-18T13:37:33;100936.56;;;19.63;77.82
65760;BME280;52496;51.082;5.066;2023-03-18T13:43:01;100923.78;;;19.35;76.13
65760;BME280;52496;51.082;5.066;2023-03-18T13:45:38;100919.16;;;19.47;76.00
65760;BME280;52496;51.082;5.066;2023-03-18T13:48:13;100914.88;;;19.63;75.41
65760;BME280;52496;51.082;5.066;2023-03-18T13:50:47;100921.50;;;19.84;71.83
65760;BME280;52496;51.082;5.066;2023-03-18T13:53:30;100913.38;;;20.01;69.97
65760;BME280;52496;51.082;5.066;2023-03-18T13:56:04;100913.28;;;19.96;70.83
65760;BME280;52496;51.082;5.066;2023-03-18T13:58:45;100910.84;;;19.94;71.17
65760;BME280;52496;51.082;5.066;2023-03-18T14:01:31;100914.44;;;19.83;70.14
65760;BME280;52496;51.082;5.066;2023-03-18T14:07:17;100910.59;;;20.12;66.02
65760;BME280;52496;51.082;5.066;2023-03-18T14:22:48;100895.38;;;20.11;63.99
65760;BME280;52496;51.082;5.066;2023-03-18T14:36:08;100893.47;;;19.95;65.66
65760;BME280;52496;51.082;5.066;2023-03-18T14:38:45;100895.09;;;19.79;67.17
65760;BME280;52496;51.082;5.066;2023-03-18T14:41:24;100894.34;;;19.84;63.35
65760;BME280;52496;51.082;5.066;2023-03-18T14:44:06;100889.28;;;20.04;62.38